createdAt,value
2018-01-22T00:01:50.755Z,1.10
2018-01-22T00:04:18.371Z,1.10
2018-01-22T00:06:45.950Z,1.10
2018-01-22T00:09:13.567Z,1.10
2018-01-22T00:11:41.175Z,1.10
2018-01-22T00:14:08.764Z,1.10
2018-01-22T00:16:36.380Z,1.10
2018-01-22T00:19:03.966Z,1.10
2018-01-22T00:21:31.547Z,1.10
2018-01-22T00:24:00.305Z,1.10
2018-01-22T00:26:27.886Z,1.10
2018-01-22T00:28:55.458Z,1.10
2018-01-22T00:31:23.839Z,1.20
2018-01-22T00:33:52.244Z,1.20
2018-01-22T00:36:19.823Z,1.20
2018-01-22T00:38:47.391Z,1.20
2018-01-22T00:41:15.017Z,1.20
2018-01-22T00:43:42.624Z,1.20
2018-01-22T00:46:10.191Z,1.20
2018-01-22T00:48:37.761Z,1.20
2018-01-22T00:51:05.370Z,1.20
2018-01-22T00:53:32.981Z,1.20
2018-01-22T00:56:00.597Z,1.20
2018-01-22T00:58:28.169Z,1.20
2018-01-22T01:00:55.773Z,1.20
2018-01-22T01:03:23.344Z,1.20
2018-01-22T01:05:50.951Z,1.20
2018-01-22T01:08:18.531Z,1.20
2018-01-22T01:10:46.130Z,1.20
2018-01-22T01:13:13.709Z,1.30
2018-01-22T01:15:41.309Z,1.20
2018-01-22T01:18:08.871Z,1.20
2018-01-22T01:20:36.478Z,1.30
2018-01-22T01:23:04.041Z,1.30
2018-01-22T01:25:31.652Z,1.20
2018-01-22T01:27:59.259Z,1.30
2018-01-22T01:30:26.863Z,1.20
2018-01-22T01:32:54.432Z,1.20
2018-01-22T01:35:22.062Z,1.20
2018-01-22T01:37:49.622Z,1.20
2018-01-22T01:40:17.190Z,1.20
2018-01-22T01:42:44.792Z,1.20
2018-01-22T01:45:12.360Z,1.20
2018-01-22T01:47:39.972Z,1.20
2018-01-22T01:50:07.581Z,1.20
2018-01-22T01:52:35.146Z,1.20
2018-01-22T01:55:02.719Z,1.30
2018-01-22T01:57:30.332Z,1.30
2018-01-22T01:59:57.899Z,1.20
2018-01-22T02:02:25.494Z,1.30
2018-01-22T02:04:53.103Z,1.30
2018-01-22T02:07:20.712Z,1.30
2018-01-22T02:09:48.283Z,1.20
2018-01-22T02:12:15.856Z,1.20
2018-01-22T02:14:43.460Z,1.20
2018-01-22T02:17:11.073Z,1.30
2018-01-22T02:19:38.639Z,1.30
2018-01-22T02:22:06.263Z,1.20
2018-01-22T02:24:33.868Z,1.30
2018-01-22T02:27:01.441Z,1.20
2018-01-22T02:29:29.047Z,1.30
2018-01-22T02:31:56.646Z,1.20
2018-01-22T02:34:24.984Z,1.20
2018-01-22T02:36:52.589Z,1.20
2018-01-22T02:39:20.920Z,1.30
2018-01-22T02:41:48.527Z,1.20
2018-01-22T02:44:16.106Z,1.30
2018-01-22T02:46:43.719Z,1.20
2018-01-22T02:49:11.284Z,1.30
2018-01-22T02:51:38.908Z,1.30
2018-01-22T02:54:06.477Z,1.30
2018-01-22T02:56:34.042Z,1.30
2018-01-22T02:59:01.644Z,1.30
2018-01-22T03:01:29.214Z,1.30
2018-01-22T03:03:57.576Z,1.30
2018-01-22T03:06:25.142Z,1.30
2018-01-22T03:08:52.751Z,1.30
2018-01-22T03:11:20.327Z,1.30
2018-01-22T03:13:47.934Z,1.30
2018-01-22T03:16:15.503Z,1.30
2018-01-22T03:18:43.950Z,1.30
2018-01-22T03:21:11.525Z,1.30
2018-01-22T03:23:39.104Z,1.30
2018-01-22T03:26:07.487Z,1.30
2018-01-22T03:28:35.825Z,1.30
2018-01-22T03:31:03.437Z,1.30
2018-01-22T03:33:31.015Z,1.30
2018-01-22T03:35:58.615Z,1.30
2018-01-22T03:38:26.192Z,1.30
2018-01-22T03:40:53.806Z,1.30
2018-01-22T03:43:21.379Z,1.30
2018-01-22T03:45:48.941Z,1.30
2018-01-22T03:48:16.540Z,1.30
2018-01-22T03:50:44.107Z,1.30
2018-01-22T03:53:11.739Z,1.30
2018-01-22T03:55:39.322Z,1.30
2018-01-22T03:58:06.895Z,1.30
2018-01-22T04:00:35.266Z,1.30
2018-01-22T04:03:03.641Z,1.30
2018-01-22T04:05:31.981Z,1.20
2018-01-22T04:07:59.586Z,1.20
2018-01-22T04:10:27.148Z,1.30
2018-01-22T04:12:54.752Z,1.20
2018-01-22T04:15:22.325Z,1.20
2018-01-22T04:17:49.938Z,1.10
2018-01-22T04:20:18.275Z,1.10
2018-01-22T04:22:45.848Z,1.10
2018-01-22T04:25:13.452Z,1.10
2018-01-22T04:27:41.022Z,1.10
2018-01-22T04:30:08.634Z,1.00
2018-01-22T04:32:36.194Z,1.00
2018-01-22T04:35:03.817Z,1.00
2018-01-22T04:37:31.387Z,0.90
2018-01-22T04:39:58.951Z,0.90
2018-01-22T04:42:26.558Z,0.90
2018-01-22T04:44:54.172Z,0.90
2018-01-22T04:47:21.799Z,0.90
2018-01-22T04:49:49.369Z,0.90
2018-01-22T04:52:16.944Z,0.90
2018-01-22T04:54:44.550Z,0.90
2018-01-22T04:57:12.162Z,0.90
2018-01-22T04:59:39.736Z,0.80
2018-01-22T05:02:07.346Z,0.80
2018-01-22T05:04:34.913Z,0.80
2018-01-22T05:07:02.528Z,0.80
2018-01-22T05:09:30.117Z,0.80
2018-01-22T05:11:57.678Z,0.70
2018-01-22T05:14:25.290Z,0.70
2018-01-22T05:16:52.899Z,0.70
2018-01-22T05:19:20.505Z,0.70
2018-01-22T05:21:48.112Z,0.60
2018-01-22T05:24:15.678Z,0.60
2018-01-22T05:26:43.282Z,0.60
2018-01-22T05:29:10.854Z,0.60
2018-01-22T05:31:38.465Z,0.60
2018-01-22T05:34:06.047Z,0.60
2018-01-22T05:36:34.413Z,0.50
2018-01-22T05:39:02.750Z,0.50
2018-01-22T05:41:30.361Z,0.50
2018-01-22T05:43:57.941Z,0.50
2018-01-22T05:46:25.546Z,0.50
2018-01-22T05:48:53.120Z,0.50
2018-01-22T05:51:20.729Z,0.50
2018-01-22T05:53:48.343Z,0.50
2018-01-22T05:56:15.918Z,0.50
2018-01-22T05:58:43.527Z,0.50
2018-01-22T06:01:11.091Z,0.50
2018-01-22T06:03:38.728Z,0.60
2018-01-22T06:06:06.293Z,0.60
2018-01-22T06:08:33.858Z,0.60
2018-01-22T06:11:01.459Z,0.60
2018-01-22T06:13:29.024Z,0.60
2018-01-22T06:15:56.630Z,0.70
2018-01-22T06:18:24.209Z,0.70
2018-01-22T06:20:51.824Z,0.70
2018-01-22T06:23:19.391Z,0.70
2018-01-22T06:25:46.962Z,0.70
2018-01-22T06:28:15.334Z,0.80
2018-01-22T06:30:43.672Z,0.80
2018-01-22T06:33:11.283Z,0.80
2018-01-22T06:35:38.896Z,0.80
2018-01-22T06:38:06.508Z,0.80
2018-01-22T06:40:34.078Z,0.90
2018-01-22T06:43:01.650Z,0.90
2018-01-22T06:45:29.250Z,0.90
2018-01-22T06:47:56.819Z,0.90
2018-01-22T06:50:24.427Z,0.90
2018-01-22T06:52:52.044Z,0.90
2018-01-22T06:55:19.611Z,0.90
2018-01-22T06:57:47.174Z,0.90
2018-01-22T07:00:14.786Z,1.00
2018-01-22T07:02:42.356Z,1.00
2018-01-22T07:05:09.982Z,1.00
2018-01-22T07:07:38.309Z,1.00
2018-01-22T07:10:06.160Z,1.00
2018-01-22T07:12:33.795Z,1.00
2018-01-22T07:15:02.870Z,1.10
2018-01-22T07:17:31.246Z,1.00
2018-01-22T07:19:59.629Z,1.00
2018-01-22T07:22:27.965Z,1.00
2018-01-22T07:24:55.530Z,1.00
2018-01-22T07:27:23.126Z,1.00
2018-01-22T07:29:50.698Z,1.00
2018-01-22T07:32:19.068Z,1.00
2018-01-22T07:34:47.403Z,1.00
2018-01-22T07:37:14.998Z,1.00
2018-01-22T07:39:42.564Z,1.00
2018-01-22T07:42:10.166Z,1.10
2018-01-22T07:44:37.737Z,1.10
2018-01-22T07:47:05.349Z,1.00
2018-01-22T07:49:33.681Z,1.10
2018-01-22T07:52:01.254Z,1.10
2018-01-22T07:54:28.858Z,1.10
2018-01-22T07:56:56.471Z,1.10
2018-01-22T08:01:58.082Z,1.10
2018-01-22T08:04:25.687Z,1.10
2018-01-22T08:06:53.245Z,1.10
2018-01-22T08:09:21.122Z,1.10
2018-01-22T08:11:49.230Z,1.10
2018-01-22T08:14:17.883Z,1.20
2018-01-22T08:16:46.581Z,1.20
2018-01-22T08:19:14.951Z,1.20
2018-01-22T08:21:44.627Z,1.20
2018-01-22T08:24:15.130Z,1.20
2018-01-22T08:26:43.708Z,1.20
2018-01-22T08:29:12.356Z,1.20
2018-01-22T08:31:40.709Z,1.20
2018-01-22T08:34:09.235Z,1.30
2018-01-22T08:36:38.805Z,1.30
2018-01-22T08:39:07.733Z,1.30
2018-01-22T08:41:37.694Z,1.30
2018-01-22T08:44:06.115Z,1.30
2018-01-22T08:46:35.137Z,1.40
2018-01-22T08:49:05.348Z,1.40
2018-01-22T08:51:34.643Z,1.40
2018-01-22T08:54:03.022Z,1.40
2018-01-22T08:56:32.087Z,1.40
2018-01-22T08:59:00.402Z,1.40
2018-01-22T09:01:30.640Z,1.40
2018-01-22T09:03:59.576Z,1.50
2018-01-22T09:06:28.376Z,1.50
2018-01-22T09:08:56.770Z,1.50
2018-01-22T09:11:24.436Z,1.60
2018-01-22T09:13:52.014Z,1.60
2018-01-22T09:16:19.613Z,1.50
2018-01-22T09:18:48.385Z,1.60
2018-01-22T09:21:16.524Z,1.60
2018-01-22T09:23:44.420Z,1.60
2018-01-22T09:26:13.114Z,1.70
2018-01-22T09:31:16.265Z,1.70
2018-01-22T09:33:44.339Z,1.70
2018-01-22T09:36:12.434Z,1.70
2018-01-22T09:38:40.476Z,1.80
2018-01-22T09:41:08.554Z,1.80
2018-01-22T09:43:37.383Z,1.90
2018-01-22T09:48:40.602Z,1.90
2018-01-22T09:51:08.745Z,1.90
2018-01-22T09:53:36.890Z,2.00
2018-01-22T09:56:05.076Z,2.00
2018-01-22T09:58:33.172Z,2.10
2018-01-22T10:01:01.253Z,2.20
2018-01-22T10:03:28.880Z,2.20
2018-01-22T10:05:56.490Z,2.30
2018-01-22T10:08:24.059Z,2.30
2018-01-22T10:10:51.658Z,2.40
2018-01-22T10:13:19.299Z,2.30
2018-01-22T10:15:46.901Z,2.30
2018-01-22T10:18:14.494Z,2.40
2018-01-22T10:20:42.825Z,2.30
2018-01-22T10:23:10.817Z,2.30
2018-01-22T10:25:38.932Z,2.40
2018-01-22T10:28:08.014Z,2.40
2018-01-22T10:30:37.574Z,2.40
2018-01-22T10:33:05.775Z,2.50
2018-01-22T10:35:33.844Z,2.60
2018-01-22T10:38:01.973Z,2.60
2018-01-22T10:40:29.991Z,2.70
2018-01-22T10:42:57.943Z,2.80
2018-01-22T10:45:26.238Z,2.80
2018-01-22T10:47:54.246Z,2.80
2018-01-22T10:50:22.465Z,2.80
2018-01-22T10:52:50.510Z,2.80
2018-01-22T10:55:18.597Z,2.70
2018-01-22T10:57:47.192Z,2.80
2018-01-22T11:00:15.221Z,2.80
2018-01-22T11:02:43.457Z,2.80
2018-01-22T11:05:11.558Z,2.80
2018-01-22T11:07:39.645Z,2.80
2018-01-22T11:10:07.736Z,2.80
2018-01-22T11:12:35.338Z,2.80
2018-01-22T11:15:02.943Z,2.70
2018-01-22T11:17:30.510Z,2.80
2018-01-22T11:19:58.133Z,2.70
2018-01-22T11:22:25.707Z,2.70
2018-01-22T11:24:53.272Z,2.80
2018-01-22T11:27:20.884Z,2.80
2018-01-22T11:29:48.445Z,2.80
2018-01-22T11:32:16.043Z,2.80
2018-01-22T11:34:43.609Z,2.70
2018-01-22T11:37:11.202Z,2.70
2018-01-22T11:39:38.813Z,2.80
2018-01-22T11:42:06.383Z,2.90
2018-01-22T11:44:33.990Z,2.90
2018-01-22T11:47:01.553Z,3.00
2018-01-22T11:49:29.925Z,3.20
2018-01-22T11:51:58.250Z,3.30
2018-01-22T11:54:25.853Z,3.30
2018-01-22T11:56:53.409Z,3.40
2018-01-22T11:59:20.979Z,3.40
2018-01-22T12:01:48.582Z,3.50
2018-01-22T12:04:16.146Z,3.50
2018-01-22T12:06:43.750Z,3.50
2018-01-22T12:09:11.313Z,3.50
2018-01-22T12:11:38.913Z,3.50
2018-01-22T12:14:06.486Z,3.50
2018-01-22T12:16:34.099Z,3.60
2018-01-22T12:19:01.675Z,3.60
2018-01-22T12:21:29.281Z,3.70
2018-01-22T12:23:56.847Z,3.70
2018-01-22T12:26:24.465Z,3.80
2018-01-22T12:28:52.039Z,3.90
2018-01-22T12:31:19.605Z,3.90
2018-01-22T12:33:47.213Z,4.00
2018-01-22T12:36:14.791Z,4.00
2018-01-22T12:38:42.409Z,4.00
2018-01-22T12:41:11.119Z,4.00
2018-01-22T12:43:38.695Z,4.10
2018-01-22T12:46:06.727Z,4.10
2018-01-22T12:48:34.374Z,4.10
2018-01-22T12:51:01.991Z,4.20
2018-01-22T12:53:29.605Z,4.30
2018-01-22T12:55:57.172Z,4.30
2018-01-22T12:58:24.738Z,4.40
2018-01-22T13:00:52.347Z,4.50
2018-01-22T13:03:20.698Z,4.60
2018-01-22T13:05:48.302Z,4.60
2018-01-22T13:08:15.885Z,4.70
2018-01-22T13:10:43.459Z,4.80
2018-01-22T13:13:11.106Z,4.80
2018-01-22T13:15:38.669Z,4.80
2018-01-22T13:18:06.285Z,4.80
2018-01-22T13:20:33.863Z,4.80
2018-01-22T13:23:02.201Z,4.80
2018-01-22T13:25:29.809Z,4.80
2018-01-22T13:27:57.386Z,4.80
2018-01-22T13:30:24.996Z,4.80
2018-01-22T13:32:52.570Z,4.80
2018-01-22T13:35:20.224Z,4.80
2018-01-22T13:37:47.794Z,4.80
2018-01-22T13:40:21.157Z,4.80
2018-01-22T13:42:49.006Z,4.80
2018-01-22T13:45:16.578Z,4.80
2018-01-22T13:47:44.184Z,4.80
2018-01-22T13:50:12.515Z,4.80
2018-01-22T13:52:40.119Z,4.80
2018-01-22T13:55:07.694Z,4.90
2018-01-22T13:57:38.345Z,4.90
2018-01-22T14:00:05.917Z,4.90
2018-01-22T14:02:33.497Z,4.90
2018-01-22T14:05:01.108Z,4.90
2018-01-22T14:07:28.684Z,4.90
2018-01-22T14:09:56.324Z,5.00
2018-01-22T14:12:23.887Z,5.00
2018-01-22T14:14:51.525Z,5.10
2018-01-22T14:17:19.105Z,5.20
2018-01-22T14:19:46.681Z,5.30
2018-01-22T14:22:15.059Z,5.40
2018-01-22T14:24:43.402Z,5.50
2018-01-22T14:27:11.019Z,5.50
2018-01-22T14:29:38.598Z,5.60
2018-01-22T14:32:06.300Z,5.60
2018-01-22T14:34:34.748Z,5.70
2018-01-22T14:37:02.321Z,5.70
2018-01-22T14:39:29.925Z,5.70
2018-01-22T14:41:57.495Z,5.80
2018-01-22T14:44:25.094Z,5.80
2018-01-22T14:46:52.664Z,5.80
2018-01-22T14:49:20.275Z,5.80
2018-01-22T14:51:47.869Z,5.80
2018-01-22T14:54:15.509Z,5.80
2018-01-22T14:56:43.135Z,5.80
2018-01-22T14:59:10.774Z,5.80
2018-01-22T15:01:40.490Z,5.80
2018-01-22T15:04:08.057Z,5.80
2018-01-22T15:06:35.665Z,5.70
2018-01-22T15:09:03.222Z,5.70
2018-01-22T15:11:30.801Z,5.70
2018-01-22T15:13:58.420Z,5.80
2018-01-22T15:16:26.757Z,5.70
2018-01-22T15:18:54.334Z,5.70
2018-01-22T15:21:21.949Z,5.80
2018-01-22T15:23:49.511Z,5.80
2018-01-22T15:26:17.087Z,5.70
2018-01-22T15:28:44.711Z,5.70
2018-01-22T15:31:13.453Z,5.70
2018-01-22T15:33:41.080Z,5.70
2018-01-22T15:36:08.626Z,5.70
2018-01-22T15:38:37.000Z,5.70
2018-01-22T15:41:05.366Z,5.70
2018-01-22T15:43:32.946Z,5.70
2018-01-22T15:46:00.590Z,5.80
2018-01-22T15:48:28.232Z,5.80
2018-01-22T15:50:55.806Z,5.80
2018-01-22T15:53:23.390Z,5.80
2018-01-22T15:55:51.776Z,5.80
2018-01-22T15:58:19.352Z,5.80
2018-01-22T16:00:47.017Z,5.80
2018-01-22T16:03:14.630Z,5.80
2018-01-22T16:05:42.248Z,5.80
2018-01-22T16:08:09.822Z,5.80
2018-01-22T16:10:37.382Z,5.80
2018-01-22T16:13:05.137Z,5.80
2018-01-22T16:15:32.714Z,5.90
2018-01-22T16:18:00.325Z,5.90
2018-01-22T16:20:28.674Z,5.80
2018-01-22T16:22:56.287Z,5.80
2018-01-22T16:25:23.851Z,5.80
2018-01-22T16:27:51.621Z,5.80
2018-01-22T16:30:19.187Z,5.80
2018-01-22T16:32:46.954Z,5.80
2018-01-22T16:35:14.518Z,5.80
2018-01-22T16:37:42.132Z,5.80
2018-01-22T16:40:10.552Z,5.80
2018-01-22T16:42:38.388Z,5.80
2018-01-22T16:45:06.824Z,5.80
2018-01-22T16:47:42.151Z,5.80
2018-01-22T16:50:09.947Z,5.80
2018-01-22T16:52:37.941Z,5.80
2018-01-22T16:55:06.953Z,5.80
2018-01-22T16:57:35.378Z,5.80
2018-01-22T17:00:05.153Z,5.80
2018-01-22T17:02:33.386Z,5.80
2018-01-22T17:05:02.247Z,5.80
2018-01-22T17:07:30.068Z,5.80
2018-01-22T17:09:58.078Z,5.70
2018-01-22T17:12:26.170Z,5.70
2018-01-22T17:14:55.122Z,5.80
2018-01-22T17:17:23.358Z,5.70
2018-01-22T17:19:51.427Z,5.80
2018-01-22T17:22:19.499Z,5.70
2018-01-22T17:24:47.629Z,5.70
2018-01-22T17:27:15.510Z,5.70
2018-01-22T17:29:43.622Z,5.70
2018-01-22T17:32:11.557Z,5.70
2018-01-22T17:34:39.670Z,5.70
2018-01-22T17:37:07.700Z,5.60
2018-01-22T17:39:35.894Z,5.60
2018-01-22T17:42:04.081Z,5.60
2018-01-22T17:44:32.048Z,5.50
2018-01-22T17:47:00.432Z,5.50
2018-01-22T17:49:28.553Z,5.50
2018-01-22T17:52:00.420Z,5.50
2018-01-22T17:54:28.683Z,5.50
2018-01-22T17:56:56.337Z,5.50
2018-01-22T17:59:23.896Z,5.50
2018-01-22T18:01:51.530Z,5.40
2018-01-22T18:04:19.113Z,5.40
2018-01-22T18:06:46.777Z,5.40
2018-01-22T18:09:15.145Z,5.40
2018-01-22T18:11:42.770Z,5.40
2018-01-22T18:14:10.422Z,5.40
2018-01-22T18:16:38.075Z,5.40
2018-01-22T18:19:05.660Z,5.40
2018-01-22T18:21:33.234Z,5.40
2018-01-22T18:24:00.845Z,5.40
2018-01-22T18:26:28.413Z,5.40
2018-01-22T18:28:56.029Z,5.40
2018-01-22T18:31:23.638Z,5.50
2018-01-22T18:33:51.207Z,5.50
2018-01-22T18:36:18.825Z,5.50
2018-01-22T18:38:47.347Z,5.50
2018-01-22T18:41:18.489Z,5.50
2018-01-22T18:43:46.169Z,5.50
2018-01-22T18:46:15.293Z,5.60
2018-01-22T18:48:42.904Z,5.60
2018-01-22T18:51:11.475Z,5.60
2018-01-22T18:53:39.124Z,5.50
2018-01-22T18:56:06.808Z,5.60
2018-01-22T18:58:34.444Z,5.60
2018-01-22T19:01:02.239Z,5.60
2018-01-22T19:03:30.588Z,5.60
2018-01-22T19:05:59.446Z,5.60
2018-01-22T19:08:27.066Z,5.60
2018-01-22T19:10:54.823Z,5.70
2018-01-22T19:13:24.146Z,5.70
2018-01-22T19:15:52.838Z,5.70
2018-01-22T19:18:20.606Z,5.70
2018-01-22T19:20:49.159Z,5.60
2018-01-22T19:23:16.738Z,5.70
2018-01-22T19:25:44.459Z,5.60
2018-01-22T19:28:12.072Z,5.70
2018-01-22T19:30:39.666Z,5.60
2018-01-22T19:33:07.393Z,5.60
2018-01-22T19:35:34.974Z,5.70
2018-01-22T19:38:02.584Z,5.70
2018-01-22T19:40:30.298Z,5.60
2018-01-22T19:42:57.916Z,5.60
2018-01-22T19:45:25.542Z,5.60
2018-01-22T19:47:53.105Z,5.60
2018-01-22T19:50:20.760Z,5.60
2018-01-22T19:52:48.382Z,5.70
2018-01-22T19:55:16.237Z,5.60
2018-01-22T19:57:43.815Z,5.60
2018-01-22T20:00:11.645Z,5.60
2018-01-22T20:02:39.239Z,5.60
2018-01-22T20:05:06.866Z,5.60
2018-01-22T20:07:34.450Z,5.60
2018-01-22T20:10:02.232Z,5.60
2018-01-22T20:12:29.860Z,5.60
2018-01-22T20:14:57.478Z,5.70
2018-01-22T20:17:25.460Z,5.60
2018-01-22T20:19:53.034Z,5.60
2018-01-22T20:22:20.814Z,5.60
2018-01-22T20:24:49.334Z,5.60
2018-01-22T20:27:17.065Z,5.60
2018-01-22T20:29:44.730Z,5.60
2018-01-22T20:32:12.352Z,5.60
2018-01-22T20:34:40.158Z,5.60
2018-01-22T20:37:07.818Z,5.60
2018-01-22T20:39:36.154Z,5.60
2018-01-22T20:42:03.984Z,5.60
2018-01-22T20:44:31.924Z,5.60
2018-01-22T20:47:00.433Z,5.60
2018-01-22T20:49:28.052Z,5.60
2018-01-22T20:51:55.801Z,5.70
2018-01-22T20:54:23.440Z,5.60
2018-01-22T20:56:51.054Z,5.60
2018-01-22T20:59:19.308Z,5.60
2018-01-22T21:01:46.940Z,5.60
2018-01-22T21:04:14.718Z,5.60
2018-01-22T21:06:42.336Z,5.60
2018-01-22T21:09:10.738Z,5.60
2018-01-22T21:11:38.429Z,5.60
2018-01-22T21:14:06.305Z,5.60
2018-01-22T21:16:33.924Z,5.60
2018-01-22T21:19:01.568Z,5.60
2018-01-22T21:21:29.198Z,5.60
2018-01-22T21:23:57.094Z,5.60
2018-01-22T21:26:25.367Z,5.60
2018-01-22T21:28:54.576Z,5.60
2018-01-22T21:31:22.242Z,5.60
2018-01-22T21:33:50.933Z,5.50
2018-01-22T21:36:18.821Z,5.50
2018-01-22T21:38:47.402Z,5.50
2018-01-22T21:41:18.243Z,5.50
2018-01-22T21:43:46.606Z,5.50
2018-01-22T21:46:14.494Z,5.50
2018-01-22T21:48:42.149Z,5.50
2018-01-22T21:51:09.753Z,5.40
2018-01-22T21:53:37.366Z,5.50
2018-01-22T21:56:07.034Z,5.50
2018-01-22T21:58:34.763Z,5.50
2018-01-22T22:01:02.632Z,5.50
2018-01-22T22:03:30.452Z,5.50
2018-01-22T22:05:59.330Z,5.60
2018-01-22T22:08:27.090Z,5.50
2018-01-22T22:10:54.689Z,5.60
2018-01-22T22:13:24.190Z,5.60
2018-01-22T22:15:52.053Z,5.60
2018-01-22T22:18:19.716Z,5.60
2018-01-22T22:20:47.389Z,5.60
2018-01-22T22:23:15.226Z,5.60
2018-01-22T22:25:43.582Z,5.70
2018-01-22T22:28:11.153Z,5.70
2018-01-22T22:30:38.843Z,5.60
2018-01-22T22:33:07.756Z,5.60
2018-01-22T22:35:35.582Z,5.60
2018-01-22T22:38:03.560Z,5.60
2018-01-22T22:40:31.442Z,5.60
2018-01-22T22:42:59.815Z,5.60
2018-01-22T22:45:28.571Z,5.70
2018-01-22T22:47:57.289Z,5.60
2018-01-22T22:50:25.191Z,5.70
2018-01-22T22:52:54.823Z,5.70
2018-01-22T22:55:23.438Z,5.70
2018-01-22T22:57:53.005Z,5.70
2018-01-22T23:00:20.576Z,5.60
2018-01-22T23:02:48.672Z,5.70
2018-01-22T23:05:18.211Z,5.70
2018-01-22T23:07:46.163Z,5.70
2018-01-22T23:10:14.593Z,5.70
2018-01-22T23:12:42.506Z,5.70
2018-01-22T23:15:11.060Z,5.70
2018-01-22T23:17:38.797Z,5.70
2018-01-22T23:20:06.414Z,5.70
2018-01-22T23:22:34.956Z,5.80
2018-01-22T23:25:02.715Z,5.80
2018-01-22T23:27:31.274Z,5.70
2018-01-22T23:29:59.105Z,5.70
2018-01-22T23:32:26.665Z,5.70
2018-01-22T23:34:54.303Z,5.70
2018-01-22T23:37:22.034Z,5.70
2018-01-22T23:39:50.704Z,5.70
2018-01-22T23:42:18.853Z,5.80
2018-01-22T23:44:47.477Z,5.80
2018-01-22T23:47:15.122Z,5.80
2018-01-22T23:49:42.728Z,5.80
2018-01-22T23:52:10.288Z,5.70
2018-01-22T23:54:38.723Z,5.70
2018-01-22T23:57:06.361Z,5.70
2018-01-22T23:59:35.413Z,5.70
